sensor_id;sensor_type;location;lat;lon;timestamp;temperature;humidity
10901;DHT22;5503;53.208;10.392;2023-09-18T00:01:09;21.10;1.00
10901;DHT22;5503;53.208;10.392;2023-09-18T00:03:36;21.00;1.00
10901;DHT22;5503;53.208;10.392;2023-09-18T00:08:31;21.00;1.00
10901;DHT22;5503;53.208;10.392;2023-09-18T00:11:00;21.00;1.00
10901;DHT22;5503;53.208;10.392;2023-09-18T00:15:54;23.90;1.00
10901;DHT22;5503;53.208;10.392;2023-09-18T00:23:19;20.90;1.00
10901;DHT22;5503;53.208;10.392;2023-09-18T00:28:15;20.70;1.00
10901;DHT22;5503;53.208;10.392;2023-09-18T00:30:49;20.70;1.00
10901;DHT22;5503;53.208;10.392;2023-09-18T00:33:16;20.60;1.00
10901;DHT22;5503;53.208;10.392;2023-09-18T00:35:47;20.70;1.00
10901;DHT22;5503;53.208;10.392;2023-09-18T00:38:15;20.70;1.00
10901;DHT22;5503;53.208;10.392;2023-09-18T00:45:41;20.50;1.00
10901;DHT22;5503;53.208;10.392;2023-09-18T00:48:08;20.50;1.00
10901;DHT22;5503;53.208;10.392;2023-09-18T00:50:36;20.40;1.00
10901;DHT22;5503;53.208;10.392;2023-09-18T00:53:04;20.50;1.00
10901;DHT22;5503;53.208;10.392;2023-09-18T01:02:55;20.50;1.00
10901;DHT22;5503;53.208;10.392;2023-09-18T01:12:46;20.40;1.00
10901;DHT22;5503;53.208;10.392;2023-09-18T01:15:18;20.40;1.00
10901;DHT22;5503;53.208;10.392;2023-09-18T01:20:17;20.50;1.00
10901;DHT22;5503;53.208;10.392;2023-09-18T01:22:45;20.50;1.00
10901;DHT22;5503;53.208;10.392;2023-09-18T01:32:36;20.40;1.00
10901;DHT22;5503;53.208;10.392;2023-09-18T01:35:05;20.30;1.00
10901;DHT22;5503;53.208;10.392;2023-09-18T01:37:34;20.20;1.00
10901;DHT22;5503;53.208;10.392;2023-09-18T01:40:05;20.20;1.00
10901;DHT22;5503;53.208;10.392;2023-09-18T01:42:33;20.30;1.00
10901;DHT22;5503;53.208;10.392;2023-09-18T01:49:55;20.20;1.00
10901;DHT22;5503;53.208;10.392;2023-09-18T01:52:22;20.20;1.00
10901;DHT22;5503;53.208;10.392;2023-09-18T01:54:49;20.30;1.00
10901;DHT22;5503;53.208;10.392;2023-09-18T01:57:18;20.40;1.00
10901;DHT22;5503;53.208;10.392;2023-09-18T02:04:39;20.30;1.00
10901;DHT22;5503;53.208;10.392;2023-09-18T02:07:06;20.30;1.00
10901;DHT22;5503;53.208;10.392;2023-09-18T02:09:33;20.30;1.00
10901;DHT22;5503;53.208;10.392;2023-09-18T02:12:00;20.40;1.00
10901;DHT22;5503;53.208;10.392;2023-09-18T02:14:29;20.10;1.00
10901;DHT22;5503;53.208;10.392;2023-09-18T02:16:56;18.60;1.00
10901;DHT22;5503;53.208;10.392;2023-09-18T02:19:23;19.90;1.00
10901;DHT22;5503;53.208;10.392;2023-09-18T02:24:17;20.00;1.00
10901;DHT22;5503;53.208;10.392;2023-09-18T02:31:41;19.90;1.00
10901;DHT22;5503;53.208;10.392;2023-09-18T02:34:08;19.80;1.00
10901;DHT22;5503;53.208;10.392;2023-09-18T02:36:35;19.80;1.00
10901;DHT22;5503;53.208;10.392;2023-09-18T02:39:02;19.80;1.00
10901;DHT22;5503;53.208;10.392;2023-09-18T02:48:52;19.70;1.00
10901;DHT22;5503;53.208;10.392;2023-09-18T02:53:46;19.90;1.00
10901;DHT22;5503;53.208;10.392;2023-09-18T02:58:40;19.80;1.00
10901;DHT22;5503;53.208;10.392;2023-09-18T03:03:34;19.80;1.00
10901;DHT22;5503;53.208;10.392;2023-09-18T03:06:03;19.80;1.00
10901;DHT22;5503;53.208;10.392;2023-09-18T03:11:00;19.80;1.00
10901;DHT22;5503;53.208;10.392;2023-09-18T03:13:29;19.80;1.00
10901;DHT22;5503;53.208;10.392;2023-09-18T03:15:56;19.90;1.00
10901;DHT22;5503;53.208;10.392;2023-09-18T03:23:19;19.70;1.00
10901;DHT22;5503;53.208;10.392;2023-09-18T03:30:40;19.50;1.00
10901;DHT22;5503;53.208;10.392;2023-09-18T03:35:46;19.50;1.00
10901;DHT22;5503;53.208;10.392;2023-09-18T03:40:43;19.50;1.00
10901;DHT22;5503;53.208;10.392;2023-09-18T03:45:37;19.40;1.00
10901;DHT22;5503;53.208;10.392;2023-09-18T03:55:26;19.20;1.00
10901;DHT22;5503;53.208;10.392;2023-09-18T03:57:54;19.10;1.00
10901;DHT22;5503;53.208;10.392;2023-09-18T04:00:21;19.10;1.00
10901;DHT22;5503;53.208;10.392;2023-09-18T04:02:48;19.20;1.00
10901;DHT22;5503;53.208;10.392;2023-09-18T04:05:15;19.30;1.00
10901;DHT22;5503;53.208;10.392;2023-09-18T04:07:42;19.40;1.00
10901;DHT22;5503;53.208;10.392;2023-09-18T04:10:12;19.30;1.00
10901;DHT22;5503;53.208;10.392;2023-09-18T04:12:44;19.30;1.00
10901;DHT22;5503;53.208;10.392;2023-09-18T04:15:14;19.40;1.00
10901;DHT22;5503;53.208;10.392;2023-09-18T04:17:43;19.50;1.00
10901;DHT22;5503;53.208;10.392;2023-09-18T04:20:10;19.50;1.00
10901;DHT22;5503;53.208;10.392;2023-09-18T04:22:44;19.50;1.00
10901;DHT22;5503;53.208;10.392;2023-09-18T04:25:11;19.50;1.00
10901;DHT22;5503;53.208;10.392;2023-09-18T04:27:38;19.40;1.00
10901;DHT22;5503;53.208;10.392;2023-09-18T04:30:06;17.80;1.00
10901;DHT22;5503;53.208;10.392;2023-09-18T04:32:36;19.50;1.00
10901;DHT22;5503;53.208;10.392;2023-09-18T04:35:03;19.50;1.00
10901;DHT22;5503;53.208;10.392;2023-09-18T04:37:35;19.40;1.00
10901;DHT22;5503;53.208;10.392;2023-09-18T04:40:03;19.40;1.00
10901;DHT22;5503;53.208;10.392;2023-09-18T04:42:30;19.30;1.00
10901;DHT22;5503;53.208;10.392;2023-09-18T04:44:57;19.30;1.00
10901;DHT22;5503;53.208;10.392;2023-09-18T04:47:24;19.40;1.00
10901;DHT22;5503;53.208;10.392;2023-09-18T04:49:52;19.20;1.00
10901;DHT22;5503;53.208;10.392;2023-09-18T04:52:19;19.20;1.00
10901;DHT22;5503;53.208;10.392;2023-09-18T04:54:46;19.00;1.00
10901;DHT22;5503;53.208;10.392;2023-09-18T04:57:12;18.90;1.00
10901;DHT22;5503;53.208;10.392;2023-09-18T04:59:39;18.60;1.00
10901;DHT22;5503;53.208;10.392;2023-09-18T05:02:06;18.70;1.00
10901;DHT22;5503;53.208;10.392;2023-09-18T05:04:33;18.80;1.00
10901;DHT22;5503;53.208;10.392;2023-09-18T05:07:01;18.80;1.00
10901;DHT22;5503;53.208;10.392;2023-09-18T05:09:28;18.80;1.00
10901;DHT22;5503;53.208;10.392;2023-09-18T05:11:56;18.80;1.00
10901;DHT22;5503;53.208;10.392;2023-09-18T05:14:23;18.90;1.00
10901;DHT22;5503;53.208;10.392;2023-09-18T05:16:50;18.90;1.00
10901;DHT22;5503;53.208;10.392;2023-09-18T05:21:44;19.00;1.00
10901;DHT22;5503;53.208;10.392;2023-09-18T05:24:13;19.00;1.00
10901;DHT22;5503;53.208;10.392;2023-09-18T05:26:40;19.10;1.00
10901;DHT22;5503;53.208;10.392;2023-09-18T05:31:35;19.10;1.00
10901;DHT22;5503;53.208;10.392;2023-09-18T05:36:30;19.10;1.00
10901;DHT22;5503;53.208;10.392;2023-09-18T05:38:56;19.20;1.00
10901;DHT22;5503;53.208;10.392;2023-09-18T05:41:25;19.10;1.00
10901;DHT22;5503;53.208;10.392;2023-09-18T05:43:54;19.20;1.00
10901;DHT22;5503;53.208;10.392;2023-09-18T05:48:48;19.10;1.00
10901;DHT22;5503;53.208;10.392;2023-09-18T05:51:15;19.20;1.00
10901;DHT22;5503;53.208;10.392;2023-09-18T05:53:42;19.40;1.00
10901;DHT22;5503;53.208;10.392;2023-09-18T05:56:08;19.30;1.00
10901;DHT22;5503;53.208;10.392;2023-09-18T05:58:37;19.70;1.00
10901;DHT22;5503;53.208;10.392;2023-09-18T06:01:04;19.70;1.00
10901;DHT22;5503;53.208;10.392;2023-09-18T06:03:31;19.70;1.00
10901;DHT22;5503;53.208;10.392;2023-09-18T06:06:01;19.80;1.00
10901;DHT22;5503;53.208;10.392;2023-09-18T06:08:28;19.80;1.00
10901;DHT22;5503;53.208;10.392;2023-09-18T06:10:56;19.90;1.00
10901;DHT22;5503;53.208;10.392;2023-09-18T06:13:24;20.00;1.00
10901;DHT22;5503;53.208;10.392;2023-09-18T06:15:53;20.10;1.00
10901;DHT22;5503;53.208;10.392;2023-09-18T06:18:21;20.20;1.00
10901;DHT22;5503;53.208;10.392;2023-09-18T06:20:48;20.20;1.00
10901;DHT22;5503;53.208;10.392;2023-09-18T06:23:15;20.20;1.00
10901;DHT22;5503;53.208;10.392;2023-09-18T06:25:42;20.30;1.00
10901;DHT22;5503;53.208;10.392;2023-09-18T06:28:09;20.40;1.00
10901;DHT22;5503;53.208;10.392;2023-09-18T06:30:36;20.30;1.00
10901;DHT22;5503;53.208;10.392;2023-09-18T06:33:04;20.20;1.00
10901;DHT22;5503;53.208;10.392;2023-09-18T06:35:31;20.20;1.00
10901;DHT22;5503;53.208;10.392;2023-09-18T06:37:58;20.20;1.00
10901;DHT22;5503;53.208;10.392;2023-09-18T06:40:25;20.30;1.00
10901;DHT22;5503;53.208;10.392;2023-09-18T06:42:58;20.30;1.00
10901;DHT22;5503;53.208;10.392;2023-09-18T06:45:25;18.70;1.00
10901;DHT22;5503;53.208;10.392;2023-09-18T06:47:52;20.60;1.00
10901;DHT22;5503;53.208;10.392;2023-09-18T06:50:21;20.60;1.00
10901;DHT22;5503;53.208;10.392;2023-09-18T06:52:47;20.70;1.00
10901;DHT22;5503;53.208;10.392;2023-09-18T06:55:15;20.60;1.00
10901;DHT22;5503;53.208;10.392;2023-09-18T06:57:43;20.70;1.00
10901;DHT22;5503;53.208;10.392;2023-09-18T07:00:11;19.30;1.00
10901;DHT22;5503;53.208;10.392;2023-09-18T07:02:40;20.80;1.00
10901;DHT22;5503;53.208;10.392;2023-09-18T07:05:07;21.00;1.00
10901;DHT22;5503;53.208;10.392;2023-09-18T07:07:35;21.00;1.00
10901;DHT22;5503;53.208;10.392;2023-09-18T07:10:02;21.10;1.00
10901;DHT22;5503;53.208;10.392;2023-09-18T07:12:29;21.10;1.00
10901;DHT22;5503;53.208;10.392;2023-09-18T07:14:58;21.20;1.00
10901;DHT22;5503;53.208;10.392;2023-09-18T07:17:25;21.10;1.00
10901;DHT22;5503;53.208;10.392;2023-09-18T07:19:51;21.10;1.00
10901;DHT22;5503;53.208;10.392;2023-09-18T07:22:18;21.30;1.00
10901;DHT22;5503;53.208;10.392;2023-09-18T07:27:31;21.30;1.00
10901;DHT22;5503;53.208;10.392;2023-09-18T07:29:58;21.40;1.00
10901;DHT22;5503;53.208;10.392;2023-09-18T07:32:25;21.50;1.00
10901;DHT22;5503;53.208;10.392;2023-09-18T07:34:53;21.40;1.00
10901;DHT22;5503;53.208;10.392;2023-09-18T07:37:21;21.60;1.00
10901;DHT22;5503;53.208;10.392;2023-09-18T07:39:48;21.80;1.00
10901;DHT22;5503;53.208;10.392;2023-09-18T07:42:16;22.00;1.00
10901;DHT22;5503;53.208;10.392;2023-09-18T07:44:44;22.10;1.00
10901;DHT22;5503;53.208;10.392;2023-09-18T07:47:11;22.30;1.00
10901;DHT22;5503;53.208;10.392;2023-09-18T07:49:38;25.80;1.00
10901;DHT22;5503;53.208;10.392;2023-09-18T07:52:05;22.40;1.00
10901;DHT22;5503;53.208;10.392;2023-09-18T07:54:32;22.40;1.00
10901;DHT22;5503;53.208;10.392;2023-09-18T07:56:59;22.50;1.00
10901;DHT22;5503;53.208;10.392;2023-09-18T07:59:27;22.20;1.00
10901;DHT22;5503;53.208;10.392;2023-09-18T08:01:56;22.20;1.00
10901;DHT22;5503;53.208;10.392;2023-09-18T08:04:23;22.10;1.00
10901;DHT22;5503;53.208;10.392;2023-09-18T08:06:50;22.00;1.00
10901;DHT22;5503;53.208;10.392;2023-09-18T08:09:17;22.20;1.00
10901;DHT22;5503;53.208;10.392;2023-09-18T08:11:44;22.20;1.00
10901;DHT22;5503;53.208;10.392;2023-09-18T08:14:11;22.10;1.00
10901;DHT22;5503;53.208;10.392;2023-09-18T08:16:38;19.80;1.00
10901;DHT22;5503;53.208;10.392;2023-09-18T08:19:07;22.30;1.00
10901;DHT22;5503;53.208;10.392;2023-09-18T08:21:35;22.30;1.00
10901;DHT22;5503;53.208;10.392;2023-09-18T08:24:02;22.30;1.00
10901;DHT22;5503;53.208;10.392;2023-09-18T08:26:29;22.30;1.00
10901;DHT22;5503;53.208;10.392;2023-09-18T08:28:55;22.30;1.00
10901;DHT22;5503;53.208;10.392;2023-09-18T08:31:22;22.10;1.00
10901;DHT22;5503;53.208;10.392;2023-09-18T08:33:49;22.00;1.00
10901;DHT22;5503;53.208;10.392;2023-09-18T08:36:19;22.10;1.00
10901;DHT22;5503;53.208;10.392;2023-09-18T08:38:45;22.00;1.00
10901;DHT22;5503;53.208;10.392;2023-09-18T08:41:14;22.30;1.00
10901;DHT22;5503;53.208;10.392;2023-09-18T08:43:42;22.20;1.00
10901;DHT22;5503;53.208;10.392;2023-09-18T08:46:10;22.20;1.00
10901;DHT22;5503;53.208;10.392;2023-09-18T08:48:38;22.30;1.00
10901;DHT22;5503;53.208;10.392;2023-09-18T08:51:06;22.20;1.00
10901;DHT22;5503;53.208;10.392;2023-09-18T08:53:36;22.00;1.00
10901;DHT22;5503;53.208;10.392;2023-09-18T08:56:04;22.00;1.00
10901;DHT22;5503;53.208;10.392;2023-09-18T08:58:32;21.90;1.00
10901;DHT22;5503;53.208;10.392;2023-09-18T09:01:01;21.80;1.00
10901;DHT22;5503;53.208;10.392;2023-09-18T09:03:29;21.90;1.00
10901;DHT22;5503;53.208;10.392;2023-09-18T09:05:56;22.00;1.00
10901;DHT22;5503;53.208;10.392;2023-09-18T09:08:27;22.10;1.00
10901;DHT22;5503;53.208;10.392;2023-09-18T09:10:55;22.10;1.00
10901;DHT22;5503;53.208;10.392;2023-09-18T09:13:23;22.00;1.00
10901;DHT22;5503;53.208;10.392;2023-09-18T09:15:53;22.10;1.00
10901;DHT22;5503;53.208;10.392;2023-09-18T09:18:22;22.20;1.00
10901;DHT22;5503;53.208;10.392;2023-09-18T09:20:56;22.50;1.00
10901;DHT22;5503;53.208;10.392;2023-09-18T09:23:25;22.70;1.00
10901;DHT22;5503;53.208;10.392;2023-09-18T09:25:52;21.40;1.00
10901;DHT22;5503;53.208;10.392;2023-09-18T09:28:30;23.00;1.00
10901;DHT22;5503;53.208;10.392;2023-09-18T09:31:00;22.90;1.00
10901;DHT22;5503;53.208;10.392;2023-09-18T09:33:28;22.90;1.00
10901;DHT22;5503;53.208;10.392;2023-09-18T09:35:57;22.80;1.00
10901;DHT22;5503;53.208;10.392;2023-09-18T09:38:28;23.00;1.00
10901;DHT22;5503;53.208;10.392;2023-09-18T09:40:57;23.10;1.00
10901;DHT22;5503;53.208;10.392;2023-09-18T09:43:25;23.00;1.00
10901;DHT22;5503;53.208;10.392;2023-09-18T09:45:58;23.10;1.00
10901;DHT22;5503;53.208;10.392;2023-09-18T09:48:25;23.30;1.00
10901;DHT22;5503;53.208;10.392;2023-09-18T09:50:56;23.30;1.00
10901;DHT22;5503;53.208;10.392;2023-09-18T09:53:42;23.50;1.00
10901;DHT22;5503;53.208;10.392;2023-09-18T09:56:09;23.60;1.00
10901;DHT22;5503;53.208;10.392;2023-09-18T09:58:36;23.70;1.00
10901;DHT22;5503;53.208;10.392;2023-09-18T10:01:11;22.00;1.00
10901;DHT22;5503;53.208;10.392;2023-09-18T10:03:43;23.90;1.00
10901;DHT22;5503;53.208;10.392;2023-09-18T10:06:11;24.10;1.00
10901;DHT22;5503;53.208;10.392;2023-09-18T10:08:40;24.10;1.00
10901;DHT22;5503;53.208;10.392;2023-09-18T10:11:08;24.10;1.00
10901;DHT22;5503;53.208;10.392;2023-09-18T10:13:41;24.10;1.00
10901;DHT22;5503;53.208;10.392;2023-09-18T10:16:14;24.20;1.00
10901;DHT22;5503;53.208;10.392;2023-09-18T10:18:56;24.10;1.00
10901;DHT22;5503;53.208;10.392;2023-09-18T10:21:30;24.30;1.00
10901;DHT22;5503;53.208;10.392;2023-09-18T10:24:07;24.00;1.00
10901;DHT22;5503;53.208;10.392;2023-09-18T10:26:44;24.00;1.00
10901;DHT22;5503;53.208;10.392;2023-09-18T10:29:13;24.10;1.00
10901;DHT22;5503;53.208;10.392;2023-09-18T10:31:43;24.20;1.00
10901;DHT22;5503;53.208;10.392;2023-09-18T10:34:12;24.20;1.00
10901;DHT22;5503;53.208;10.392;2023-09-18T10:36:41;24.10;1.00
10901;DHT22;5503;53.208;10.392;2023-09-18T10:39:10;24.10;1.00
10901;DHT22;5503;53.208;10.392;2023-09-18T10:41:38;24.10;1.00
10901;DHT22;5503;53.208;10.392;2023-09-18T10:44:06;24.20;1.00
10901;DHT22;5503;53.208;10.392;2023-09-18T10:46:33;24.40;1.00
10901;DHT22;5503;53.208;10.392;2023-09-18T10:49:02;24.50;1.00
10901;DHT22;5503;53.208;10.392;2023-09-18T10:51:31;24.30;1.00
10901;DHT22;5503;53.208;10.392;2023-09-18T10:53:59;24.40;1.00
10901;DHT22;5503;53.208;10.392;2023-09-18T10:56:26;24.50;1.00
10901;DHT22;5503;53.208;10.392;2023-09-18T10:58:58;24.80;1.00
10901;DHT22;5503;53.208;10.392;2023-09-18T11:01:25;24.80;1.00
10901;DHT22;5503;53.208;10.392;2023-09-18T11:03:58;25.00;1.00
10901;DHT22;5503;53.208;10.392;2023-09-18T11:06:28;24.80;1.00
10901;DHT22;5503;53.208;10.392;2023-09-18T11:09:00;24.80;1.00
10901;DHT22;5503;53.208;10.392;2023-09-18T11:11:30;25.00;1.00
10901;DHT22;5503;53.208;10.392;2023-09-18T11:13:58;25.10;1.00
10901;DHT22;5503;53.208;10.392;2023-09-18T11:16:36;25.30;1.00
10901;DHT22;5503;53.208;10.392;2023-09-18T11:19:09;25.50;1.00
10901;DHT22;5503;53.208;10.392;2023-09-18T11:21:38;25.50;1.00
10901;DHT22;5503;53.208;10.392;2023-09-18T11:24:06;25.40;1.00
10901;DHT22;5503;53.208;10.392;2023-09-18T11:26:39;25.50;1.00
10901;DHT22;5503;53.208;10.392;2023-09-18T11:29:08;25.30;1.00
10901;DHT22;5503;53.208;10.392;2023-09-18T11:31:47;25.30;1.00
10901;DHT22;5503;53.208;10.392;2023-09-18T11:34:15;25.50;1.00
10901;DHT22;5503;53.208;10.392;2023-09-18T11:36:48;25.70;1.00
10901;DHT22;5503;53.208;10.392;2023-09-18T11:39:33;25.70;1.00
10901;DHT22;5503;53.208;10.392;2023-09-18T11:42:09;25.80;1.00
10901;DHT22;5503;53.208;10.392;2023-09-18T11:44:37;25.70;1.00
10901;DHT22;5503;53.208;10.392;2023-09-18T11:47:10;25.80;1.00
10901;DHT22;5503;53.208;10.392;2023-09-18T11:49:51;25.60;1.00
10901;DHT22;5503;53.208;10.392;2023-09-18T11:52:22;25.60;1.00
10901;DHT22;5503;53.208;10.392;2023-09-18T11:54:50;25.60;1.00
10901;DHT22;5503;53.208;10.392;2023-09-18T11:57:17;26.60;1.00
10901;DHT22;5503;53.208;10.392;2023-09-18T11:59:46;25.30;1.00
10901;DHT22;5503;53.208;10.392;2023-09-18T12:02:13;25.50;1.00
10901;DHT22;5503;53.208;10.392;2023-09-18T12:04:46;25.40;1.00
10901;DHT22;5503;53.208;10.392;2023-09-18T12:07:13;25.40;1.00
10901;DHT22;5503;53.208;10.392;2023-09-18T12:09:42;25.60;1.00
10901;DHT22;5503;53.208;10.392;2023-09-18T12:12:09;25.70;1.00
10901;DHT22;5503;53.208;10.392;2023-09-18T12:14:40;25.80;1.00
10901;DHT22;5503;53.208;10.392;2023-09-18T12:17:07;25.90;1.00
10901;DHT22;5503;53.208;10.392;2023-09-18T12:19:34;26.00;1.00
10901;DHT22;5503;53.208;10.392;2023-09-18T12:22:02;25.90;1.00
10901;DHT22;5503;53.208;10.392;2023-09-18T12:24:29;25.80;1.00
10901;DHT22;5503;53.208;10.392;2023-09-18T12:26:58;25.80;1.00
10901;DHT22;5503;53.208;10.392;2023-09-18T12:29:25;26.10;1.00
10901;DHT22;5503;53.208;10.392;2023-09-18T12:31:52;26.40;1.00
10901;DHT22;5503;53.208;10.392;2023-09-18T12:34:21;26.80;1.00
10901;DHT22;5503;53.208;10.392;2023-09-18T12:36:49;27.00;1.00
10901;DHT22;5503;53.208;10.392;2023-09-18T12:39:17;27.00;1.00
10901;DHT22;5503;53.208;10.392;2023-09-18T12:41:46;27.00;1.00
10901;DHT22;5503;53.208;10.392;2023-09-18T12:44:14;27.00;1.00
10901;DHT22;5503;53.208;10.392;2023-09-18T12:46:42;26.80;1.00
10901;DHT22;5503;53.208;10.392;2023-09-18T12:49:19;26.60;1.00
10901;DHT22;5503;53.208;10.392;2023-09-18T12:51:57;26.20;1.00
10901;DHT22;5503;53.208;10.392;2023-09-18T12:54:37;25.90;1.00
10901;DHT22;5503;53.208;10.392;2023-09-18T12:57:05;26.00;1.00
10901;DHT22;5503;53.208;10.392;2023-09-18T12:59:34;25.90;1.00
10901;DHT22;5503;53.208;10.392;2023-09-18T13:02:02;25.80;1.00
10901;DHT22;5503;53.208;10.392;2023-09-18T13:04:30;25.90;1.00
10901;DHT22;5503;53.208;10.392;2023-09-18T13:07:06;25.90;1.00
10901;DHT22;5503;53.208;10.392;2023-09-18T13:09:34;26.00;1.00
10901;DHT22;5503;53.208;10.392;2023-09-18T13:12:03;26.20;1.00
10901;DHT22;5503;53.208;10.392;2023-09-18T13:14:49;26.30;1.00
10901;DHT22;5503;53.208;10.392;2023-09-18T13:17:19;26.30;1.00
10901;DHT22;5503;53.208;10.392;2023-09-18T13:19:45;26.50;1.00
10901;DHT22;5503;53.208;10.392;2023-09-18T13:22:22;26.50;1.00
10901;DHT22;5503;53.208;10.392;2023-09-18T13:24:55;26.60;1.00
10901;DHT22;5503;53.208;10.392;2023-09-18T13:27:23;26.50;1.00
10901;DHT22;5503;53.208;10.392;2023-09-18T13:29:51;26.00;1.00
10901;DHT22;5503;53.208;10.392;2023-09-18T13:32:20;26.00;1.00
10901;DHT22;5503;53.208;10.392;2023-09-18T13:34:47;26.00;1.00
10901;DHT22;5503;53.208;10.392;2023-09-18T13:37:14;25.90;1.00
10901;DHT22;5503;53.208;10.392;2023-09-18T13:39:43;25.70;1.00
10901;DHT22;5503;53.208;10.392;2023-09-18T13:42:11;25.50;1.00
10901;DHT22;5503;53.208;10.392;2023-09-18T13:44:38;25.60;1.00
10901;DHT22;5503;53.208;10.392;2023-09-18T13:47:05;25.60;1.00
10901;DHT22;5503;53.208;10.392;2023-09-18T13:49:33;25.80;1.00
10901;DHT22;5503;53.208;10.392;2023-09-18T13:52:00;25.80;1.00
10901;DHT22;5503;53.208;10.392;2023-09-18T13:54:27;25.80;1.00
10901;DHT22;5503;53.208;10.392;2023-09-18T13:56:55;25.80;1.00
10901;DHT22;5503;53.208;10.392;2023-09-18T13:59:22;25.70;1.00
10901;DHT22;5503;53.208;10.392;2023-09-18T14:01:49;25.80;1.00
10901;DHT22;5503;53.208;10.392;2023-09-18T14:04:17;25.80;1.00
10901;DHT22;5503;53.208;10.392;2023-09-18T14:06:46;25.70;1.00
10901;DHT22;5503;53.208;10.392;2023-09-18T14:09:13;25.60;1.00
10901;DHT22;5503;53.208;10.392;2023-09-18T14:11:40;25.40;1.00
10901;DHT22;5503;53.208;10.392;2023-09-18T14:14:07;25.30;1.00
10901;DHT22;5503;53.208;10.392;2023-09-18T14:16:34;25.30;1.00
10901;DHT22;5503;53.208;10.392;2023-09-18T14:19:01;25.30;1.00
10901;DHT22;5503;53.208;10.392;2023-09-18T14:21:28;25.30;1.00
10901;DHT22;5503;53.208;10.392;2023-09-18T14:23:57;25.20;1.00
10901;DHT22;5503;53.208;10.392;2023-09-18T14:26:24;25.20;1.00
10901;DHT22;5503;53.208;10.392;2023-09-18T14:28:51;25.20;1.00
10901;DHT22;5503;53.208;10.392;2023-09-18T14:31:19;25.10;1.00
10901;DHT22;5503;53.208;10.392;2023-09-18T14:33:46;25.10;1.00
10901;DHT22;5503;53.208;10.392;2023-09-18T14:36:13;25.00;1.00
10901;DHT22;5503;53.208;10.392;2023-09-18T14:38:40;25.10;1.00
10901;DHT22;5503;53.208;10.392;2023-09-18T14:41:08;25.10;1.00
10901;DHT22;5503;53.208;10.392;2023-09-18T14:43:35;25.00;1.00
10901;DHT22;5503;53.208;10.392;2023-09-18T14:46:02;25.00;1.00
10901;DHT22;5503;53.208;10.392;2023-09-18T14:48:30;25.10;1.00
10901;DHT22;5503;53.208;10.392;2023-09-18T14:50:58;25.10;1.00
10901;DHT22;5503;53.208;10.392;2023-09-18T14:53:25;25.20;1.00
10901;DHT22;5503;53.208;10.392;2023-09-18T14:55:52;25.10;1.00
10901;DHT22;5503;53.208;10.392;2023-09-18T14:58:22;25.20;1.00
10901;DHT22;5503;53.208;10.392;2023-09-18T15:00:49;25.20;1.00
10901;DHT22;5503;53.208;10.392;2023-09-18T15:03:16;25.00;1.00
10901;DHT22;5503;53.208;10.392;2023-09-18T15:05:43;24.90;1.00
10901;DHT22;5503;53.208;10.392;2023-09-18T15:08:10;25.00;1.00
10901;DHT22;5503;53.208;10.392;2023-09-18T15:10:37;25.10;1.00
10901;DHT22;5503;53.208;10.392;2023-09-18T15:13:04;25.10;1.00
10901;DHT22;5503;53.208;10.392;2023-09-18T15:15:33;25.20;1.00
10901;DHT22;5503;53.208;10.392;2023-09-18T15:18:01;25.10;1.00
10901;DHT22;5503;53.208;10.392;2023-09-18T15:20:28;24.90;1.00
10901;DHT22;5503;53.208;10.392;2023-09-18T15:22:55;24.90;1.00
10901;DHT22;5503;53.208;10.392;2023-09-18T15:25:22;25.00;1.00
10901;DHT22;5503;53.208;10.392;2023-09-18T15:27:49;25.10;1.00
10901;DHT22;5503;53.208;10.392;2023-09-18T15:30:16;25.10;1.00
10901;DHT22;5503;53.208;10.392;2023-09-18T15:32:49;25.00;1.00
10901;DHT22;5503;53.208;10.392;2023-09-18T15:35:18;24.80;1.00
10901;DHT22;5503;53.208;10.392;2023-09-18T15:37:45;24.70;1.00
10901;DHT22;5503;53.208;10.392;2023-09-18T15:40:12;24.70;1.00
10901;DHT22;5503;53.208;10.392;2023-09-18T15:42:41;24.60;1.00
10901;DHT22;5503;53.208;10.392;2023-09-18T15:45:10;24.60;1.00
10901;DHT22;5503;53.208;10.392;2023-09-18T15:47:37;24.60;1.00
10901;DHT22;5503;53.208;10.392;2023-09-18T15:50:06;24.70;1.00
10901;DHT22;5503;53.208;10.392;2023-09-18T15:52:33;24.60;1.00
10901;DHT22;5503;53.208;10.392;2023-09-18T15:55:01;24.60;1.00
10901;DHT22;5503;53.208;10.392;2023-09-18T15:57:31;24.70;1.00
10901;DHT22;5503;53.208;10.392;2023-09-18T15:59:58;24.80;1.00
10901;DHT22;5503;53.208;10.392;2023-09-18T16:02:30;24.70;1.00
10901;DHT22;5503;53.208;10.392;2023-09-18T16:04:57;24.60;1.00
10901;DHT22;5503;53.208;10.392;2023-09-18T16:07:26;24.60;1.00
10901;DHT22;5503;53.208;10.392;2023-09-18T16:09:53;24.60;1.00
10901;DHT22;5503;53.208;10.392;2023-09-18T16:12:20;24.50;1.00
10901;DHT22;5503;53.208;10.392;2023-09-18T16:14:48;24.40;1.00
10901;DHT22;5503;53.208;10.392;2023-09-18T16:17:15;24.40;1.00
10901;DHT22;5503;53.208;10.392;2023-09-18T16:19:42;24.40;1.00
10901;DHT22;5503;53.208;10.392;2023-09-18T16:22:10;24.40;1.00
10901;DHT22;5503;53.208;10.392;2023-09-18T16:24:39;24.40;1.00
10901;DHT22;5503;53.208;10.392;2023-09-18T16:27:06;24.50;1.00
10901;DHT22;5503;53.208;10.392;2023-09-18T16:29:33;24.60;1.00
10901;DHT22;5503;53.208;10.392;2023-09-18T16:32:00;24.60;1.00
10901;DHT22;5503;53.208;10.392;2023-09-18T16:34:28;24.60;1.00
10901;DHT22;5503;53.208;10.392;2023-09-18T16:36:55;24.50;1.00
10901;DHT22;5503;53.208;10.392;2023-09-18T16:39:22;22.10;1.00
10901;DHT22;5503;53.208;10.392;2023-09-18T16:41:52;24.20;1.00
10901;DHT22;5503;53.208;10.392;2023-09-18T16:44:19;24.20;1.00
10901;DHT22;5503;53.208;10.392;2023-09-18T16:46:46;24.20;1.00
10901;DHT22;5503;53.208;10.392;2023-09-18T16:49:13;24.20;1.00
10901;DHT22;5503;53.208;10.392;2023-09-18T16:51:47;24.00;1.00
10901;DHT22;5503;53.208;10.392;2023-09-18T16:54:14;24.00;1.00
10901;DHT22;5503;53.208;10.392;2023-09-18T16:59:10;24.00;1.00
10901;DHT22;5503;53.208;10.392;2023-09-18T17:04:04;23.90;1.00
10901;DHT22;5503;53.208;10.392;2023-09-18T17:06:32;23.80;1.00
10901;DHT22;5503;53.208;10.392;2023-09-18T17:09:01;23.80;1.00
10901;DHT22;5503;53.208;10.392;2023-09-18T17:11:29;23.70;1.00
10901;DHT22;5503;53.208;10.392;2023-09-18T17:13:57;23.60;1.00
10901;DHT22;5503;53.208;10.392;2023-09-18T17:16:26;20.50;1.00
10901;DHT22;5503;53.208;10.392;2023-09-18T17:18:52;23.60;1.00
10901;DHT22;5503;53.208;10.392;2023-09-18T17:21:22;23.70;1.00
10901;DHT22;5503;53.208;10.392;2023-09-18T17:23:49;23.60;1.00
10901;DHT22;5503;53.208;10.392;2023-09-18T17:26:16;23.70;1.00
10901;DHT22;5503;53.208;10.392;2023-09-18T17:28:43;23.70;1.00
10901;DHT22;5503;53.208;10.392;2023-09-18T17:31:10;23.70;1.00
10901;DHT22;5503;53.208;10.392;2023-09-18T17:33:39;23.70;1.00
10901;DHT22;5503;53.208;10.392;2023-09-18T17:36:06;23.70;1.00
10901;DHT22;5503;53.208;10.392;2023-09-18T17:41:02;23.70;1.00
10901;DHT22;5503;53.208;10.392;2023-09-18T17:43:30;23.70;1.00
10901;DHT22;5503;53.208;10.392;2023-09-18T17:48:24;23.60;1.00
10901;DHT22;5503;53.208;10.392;2023-09-18T17:50:53;23.60;1.00
10901;DHT22;5503;53.208;10.392;2023-09-18T17:53:20;23.50;1.00
10901;DHT22;5503;53.208;10.392;2023-09-18T17:55:47;23.50;1.00